Terminal Aerodrome Forecast
Issued by NWS

Home | Current Version | Previous Version | Graphics & Text | Print | Product List | Glossary On
Versions: 1 2 3 4 5 6 7 8 9 10 11 12 13 14 15 16 17 18 19
292
FTUS43 KBIS 261723
TAFJMS
TAF
KJMS 261723Z 2618/2718 VRB03KT P6SM SKC
     FM262200 26005KT P6SM SKC
     FM270300 16006KT P6SM SKC
     FM271100 18008KT P6SM FEW250 WS020/20035KT
     FM271400 18013G21KT P6SM FEW200=

USA.gov is the U.S. government's official web portal to all federal, state and local government web resources and services.